This is the latest recevied weather packets stored in our database for station/object SV2AHT-14. If no packets are shown the sender has not sent any weather packets the latest 10 day(s).
| Time | Temp. | Humidity | Pressure | Rain* | Wind** | Luminosity | Snow |
|---|---|---|---|---|---|---|---|
| 1777319897 | 8.33° C | 61% | 820.5 hPa | - | - | - | - |
| 1777318097 | 7.78° C | 59% | 820.4 hPa | - | - | - | - |
| 1777316297 | 8.89° C | 59% | 820.5 hPa | - | - | - | - |
| 1777312702 | 10° C | 53% | 820.1 hPa | - | - | - | - |
| 1777310902 | 11.11° C | 50% | 819.9 hPa | - | - | - | - |
| 1777294696 | 17.22° C | 45% | 821 hPa | - | - | - | - |
| 1777293804 | 17.78° C | 46% | 821 hPa | - | - | - | - |
| 1777292005 | 16.67° C | 45% | 821.3 hPa | - | - | - | - |
| 1777291105 | 15.56° C | 46% | 821.5 hPa | - | - | - | - |
| 1777289302 | 15.56° C | 46% | 821.4 hPa | - | - | - | - |
| 1777287502 | 16.67° C | 44% | 821.5 hPa | - | - | - | - |
| 1777285731 | 17.22° C | 42% | 821.7 hPa | - | - | - | - |
| 1777285698 | 17.22° C | 42% | 821.7 hPa | - | - | - | - |
| 1777283897 | 18.89° C | 43% | 822 hPa | - | - | - | - |
| 1777236526 | 8.89° C | 54% | 816.8 hPa | - | - | - | - |
| 1777235626 | 11.11° C | 54% | 819.7 hPa | - | - | - | - |
| 1777233826 | 11.11° C | 53% | 819.3 hPa | - | - | - | - |
| 1777232926 | 11.67° C | 52% | 819.2 hPa | - | - | - | - |
| 1777232026 | 11.67° C | 52% | 819 hPa | - | - | - | - |
| 1777231125 | 11.67° C | 52% | 819.1 hPa | - | - | - | - |
| 1777229326 | 11.67° C | 52% | 818.5 hPa | - | - | - | - |
| 1777227559 | 12.22° C | 51% | 818.3 hPa | - | - | - | - |
| 1777227525 | 12.22° C | 51% | 818.3 hPa | - | - | - | - |
| 1777226625 | 12.22° C | 50% | 818.7 hPa | - | - | - | - |
| 1777218603 | 17.22° C | 45% | 818.3 hPa | - | - | - | - |
* Rain since midnight (hover to see other rain measurements)
** Current wind speed in m/s (hover to see current wind gust speed)